Winthrop, Minnesota
Current Conditions -  °F | °C
As of 9:34 AM on Monday 22 Dec 2014 (Local Time) from KULM Reporting Station
Light Rain Light Rain  
Wind Chill: 29°   Ceiling: 500
Heat Index: 37°   Visibility: 3mi
Dew Point: 37°   Wind: 15mph
Humidity: 100%   Direction: 140°SE
Pressure: 29.57"   Gusts: NA
Location:  44.54°N, 94.37°W
Report Text: KULM 221534Z AUTO 14013KT 3SM -RA OVC005 03/03 A2957 RMK AO2 P0001
Loading
Personal Weather Stations






























Interactive Weather Map New forecast layout! Learn more

10-Day Weather Forecast

Advertisements
Track Severe Weather on mobile